createdAt,value
2019-04-21T00:02:01.272Z,9.88
2019-04-21T00:04:43.007Z,10.50
2019-04-21T00:07:22.477Z,10.10
2019-04-21T00:09:52.384Z,9.20
2019-04-21T00:12:17.975Z,9.88
2019-04-21T00:14:43.412Z,9.68
2019-04-21T00:17:09.076Z,12.60
2019-04-21T00:19:38.566Z,10.38
2019-04-21T00:22:14.954Z,10.13
2019-04-21T00:24:50.146Z,9.53
2019-04-21T00:27:26.620Z,11.15
2019-04-21T00:29:59.330Z,9.18
2019-04-21T00:32:22.205Z,11.00
2019-04-21T00:34:43.275Z,10.55
2019-04-21T00:37:18.027Z,9.68
2019-04-21T00:40:02.190Z,9.23
2019-04-21T00:42:22.862Z,9.15
2019-04-21T00:44:55.625Z,11.05
2019-04-21T00:47:31.707Z,11.18
2019-04-21T00:50:01.982Z,14.35
2019-04-21T00:52:47.568Z,13.72
2019-04-21T00:55:14.057Z,13.40
2019-04-21T00:57:42.702Z,13.80
2019-04-21T01:00:08.943Z,11.60
2019-04-21T01:02:32.984Z,10.23
2019-04-21T01:05:04.862Z,11.40
2019-04-21T01:07:37.022Z,9.73
2019-04-21T01:09:59.264Z,8.90
2019-04-21T01:12:37.352Z,9.70
2019-04-21T01:15:10.667Z,8.50
2019-04-21T01:17:35.686Z,8.90
2019-04-21T01:19:58.423Z,8.75
2019-04-21T01:22:14.195Z,8.73
2019-04-21T01:24:46.627Z,8.20
2019-04-21T01:27:25.043Z,9.10
2019-04-21T01:30:10.009Z,9.33
2019-04-21T01:32:35.957Z,9.85
2019-04-21T01:35:03.994Z,10.80
2019-04-21T01:37:44.292Z,10.68
2019-04-21T01:40:08.509Z,10.95
2019-04-21T01:42:33.466Z,9.15
2019-04-21T01:45:04.399Z,9.65
2019-04-21T01:47:31.481Z,8.83
2019-04-21T01:49:56.523Z,8.55
2019-04-21T01:52:43.891Z,8.50
2019-04-21T01:55:23.160Z,9.30
2019-04-21T01:57:42.635Z,9.50
2019-04-21T02:00:13.610Z,8.13
2019-04-21T02:02:54.549Z,10.30
2019-04-21T02:05:26.685Z,9.55
2019-04-21T02:07:50.557Z,9.93
2019-04-21T02:10:33.250Z,10.78
2019-04-21T02:12:51.066Z,11.15
2019-04-21T02:17:53.738Z,8.08
2019-04-21T02:20:18.057Z,9.18
2019-04-21T02:23:12.792Z,8.90
2019-04-21T02:25:26.043Z,9.70
2019-04-21T02:28:01.215Z,9.33
2019-04-21T02:30:36.452Z,9.70
2019-04-21T02:33:38.869Z,8.88
2019-04-21T02:40:51.956Z,8.00
2019-04-21T02:43:11.282Z,8.75
2019-04-21T02:45:47.897Z,7.75
2019-04-21T02:48:19.324Z,7.87
2019-04-21T02:53:21.089Z,8.73
2019-04-21T02:58:18.603Z,8.30
2019-04-21T03:01:05.237Z,7.75
2019-04-21T03:03:46.321Z,8.98
2019-04-21T03:06:15.334Z,8.40
2019-04-21T03:08:56.712Z,8.88
2019-04-21T03:11:22.005Z,8.23
2019-04-21T03:14:05.818Z,9.08
2019-04-21T03:18:56.612Z,9.58
2019-04-21T03:26:33.044Z,8.33
2019-04-21T03:36:43.820Z,9.08
2019-04-21T03:38:47.271Z,7.85
2019-04-21T03:41:19.142Z,8.40
2019-04-21T03:43:50.248Z,8.78
2019-04-21T03:46:23.344Z,8.28
2019-04-21T03:48:58.349Z,7.67
2019-04-21T03:51:32.992Z,8.25
2019-04-21T03:53:55.860Z,8.03
2019-04-21T03:56:27.160Z,8.03
2019-04-21T03:58:58.457Z,9.63
2019-04-21T04:01:34.868Z,8.05
2019-04-21T04:04:22.581Z,8.48
2019-04-21T04:07:06.293Z,9.35
2019-04-21T04:09:31.400Z,8.38
2019-04-21T04:14:23.224Z,8.93
2019-04-21T04:17:05.614Z,8.13
2019-04-21T04:19:26.368Z,8.30
2019-04-21T04:22:14.599Z,8.93
2019-04-21T04:24:34.331Z,8.75
2019-04-21T04:27:08.115Z,8.75
2019-04-21T04:29:24.569Z,9.53
2019-04-21T04:32:21.164Z,8.58
2019-04-21T04:34:27.537Z,8.65
2019-04-21T04:37:06.051Z,8.45
2019-04-21T04:39:42.891Z,8.98
2019-04-21T04:44:57.640Z,9.50
2019-04-21T04:47:18.410Z,8.95
2019-04-21T04:49:47.941Z,8.80
2019-04-21T04:52:27.795Z,8.95
2019-04-21T04:57:29.117Z,8.28
2019-04-21T05:02:20.520Z,8.50
2019-04-21T05:04:54.927Z,9.15
2019-04-21T05:07:13.893Z,10.00
2019-04-21T05:09:47.049Z,8.88
2019-04-21T05:12:12.003Z,9.20
2019-04-21T05:19:57.413Z,9.70
2019-04-21T05:22:20.033Z,7.87
2019-04-21T05:24:33.835Z,8.75
2019-04-21T05:26:58.380Z,8.13
2019-04-21T05:29:47.165Z,8.95
2019-04-21T05:32:14.063Z,9.00
2019-04-21T05:34:55.971Z,8.18
2019-04-21T05:37:31.711Z,9.70
2019-04-21T05:39:57.913Z,7.80
2019-04-21T05:42:30.342Z,9.43
2019-04-21T05:45:31.270Z,7.92
2019-04-21T05:47:40.985Z,8.18
2019-04-21T05:50:07.861Z,8.15
2019-04-21T05:52:47.454Z,7.97
2019-04-21T05:55:25.700Z,7.03
2019-04-21T05:57:55.861Z,6.27
2019-04-21T06:00:39.055Z,7.03
2019-04-21T06:02:57.818Z,7.63
2019-04-21T06:08:03.090Z,8.67
2019-04-21T06:10:31.541Z,7.30
2019-04-21T06:13:05.567Z,8.17
2019-04-21T06:15:29.983Z,7.60
2019-04-21T06:18:05.034Z,8.80
2019-04-21T06:20:34.998Z,8.07
2019-04-21T06:23:03.257Z,8.10
2019-04-21T06:25:50.063Z,7.93
2019-04-21T06:28:08.547Z,8.60
2019-04-21T06:30:35.880Z,8.50
2019-04-21T06:33:06.450Z,7.87
2019-04-21T06:36:11.352Z,7.87
2019-04-21T06:38:47.422Z,8.00
2019-04-21T06:41:04.828Z,8.30
2019-04-21T06:43:41.711Z,8.33
2019-04-21T06:46:10.351Z,9.43
2019-04-21T06:48:40.919Z,9.50
2019-04-21T06:51:08.617Z,9.80
2019-04-21T06:53:44.638Z,9.23
2019-04-21T06:56:09.239Z,8.60
2019-04-21T06:58:36.538Z,9.90
2019-04-21T07:01:10.480Z,8.57
2019-04-21T07:03:42.234Z,9.70
2019-04-21T07:06:08.110Z,8.63
2019-04-21T07:08:51.505Z,10.30
2019-04-21T07:11:04.122Z,9.70
2019-04-21T07:13:34.704Z,8.77
2019-04-21T07:16:13.856Z,10.40
2019-04-21T07:18:42.854Z,8.93
2019-04-21T07:21:07.877Z,9.80
2019-04-21T07:23:39.811Z,10.13
2019-04-21T07:26:02.976Z,9.27
2019-04-21T07:28:46.032Z,10.10
2019-04-21T07:31:15.503Z,10.67
2019-04-21T07:33:54.318Z,14.80
2019-04-21T07:36:15.591Z,11.57
2019-04-21T07:38:37.943Z,33.70
2019-04-21T07:41:02.286Z,11.17
2019-04-21T07:43:33.978Z,8.90
2019-04-21T07:46:02.716Z,8.10
2019-04-21T07:48:57.941Z,8.53
2019-04-21T07:51:53.472Z,8.67
2019-04-21T07:54:33.890Z,8.87
2019-04-21T07:56:41.906Z,8.17
2019-04-21T08:02:20.212Z,11.70
2019-04-21T08:05:00.701Z,10.67
2019-04-21T08:13:34.630Z,11.77
2019-04-21T08:19:20.578Z,7.63
2019-04-21T08:22:03.749Z,7.33
2019-04-21T08:24:28.525Z,7.10
2019-04-21T08:27:07.854Z,6.87
2019-04-21T08:32:44.735Z,6.43
2019-04-21T08:35:34.337Z,6.83
2019-04-21T08:37:57.003Z,6.50
2019-04-21T08:43:48.028Z,6.67
2019-04-21T08:46:32.926Z,6.37
2019-04-21T08:49:10.896Z,6.53
2019-04-21T08:52:21.218Z,7.60
2019-04-21T08:54:57.103Z,6.30
2019-04-21T08:57:53.783Z,6.67
2019-04-21T09:00:36.742Z,6.10
2019-04-21T09:03:25.009Z,6.87
2019-04-21T09:05:53.984Z,5.90
2019-04-21T09:08:31.681Z,5.53
2019-04-21T09:11:05.729Z,6.30
2019-04-21T09:13:47.726Z,5.77
2019-04-21T09:16:32.361Z,6.13
2019-04-21T09:19:38.606Z,5.30
2019-04-21T09:22:28.676Z,5.90
2019-04-21T09:24:55.944Z,5.47
2019-04-21T09:27:30.749Z,5.70
2019-04-21T09:29:52.364Z,5.63
2019-04-21T09:32:26.773Z,5.63
2019-04-21T09:34:53.799Z,5.80
2019-04-21T09:37:33.029Z,5.90
2019-04-21T09:39:57.425Z,5.80
2019-04-21T09:42:46.986Z,5.43
2019-04-21T09:45:12.126Z,5.47
2019-04-21T09:47:52.526Z,6.80
2019-04-21T09:50:17.494Z,5.27
2019-04-21T09:52:54.343Z,5.70
2019-04-21T09:55:36.468Z,5.43
2019-04-21T09:58:08.725Z,4.77
2019-04-21T10:00:36.357Z,4.70
2019-04-21T10:03:17.301Z,5.43
2019-04-21T10:05:58.828Z,5.00
2019-04-21T10:08:36.296Z,5.93
2019-04-21T10:11:07.790Z,5.20
2019-04-21T10:13:42.314Z,5.67
2019-04-21T10:16:32.345Z,5.73
2019-04-21T10:22:02.756Z,5.40
2019-04-21T10:24:34.001Z,5.70
2019-04-21T10:27:19.399Z,5.50
2019-04-21T10:29:50.550Z,5.13
2019-04-21T10:32:34.385Z,4.80
2019-04-21T10:35:05.343Z,7.50
2019-04-21T10:37:48.335Z,6.63
2019-04-21T10:40:11.637Z,5.07
2019-04-21T10:42:40.412Z,5.33
2019-04-21T10:45:23.129Z,4.77
2019-04-21T10:47:58.709Z,5.00
2019-04-21T10:50:49.610Z,4.33
2019-04-21T10:53:24.930Z,4.97
2019-04-21T10:56:09.740Z,5.40
2019-04-21T10:58:38.290Z,5.43
2019-04-21T11:01:18.943Z,6.70
2019-04-21T11:04:16.047Z,5.70
2019-04-21T11:06:56.304Z,5.47
2019-04-21T11:09:29.983Z,6.00
2019-04-21T11:12:18.106Z,5.40
2019-04-21T11:14:49.730Z,4.97
2019-04-21T11:17:24.075Z,5.53
2019-04-21T11:20:01.419Z,4.77
2019-04-21T11:22:47.277Z,5.53
2019-04-21T11:25:24.155Z,6.10
2019-04-21T11:28:00.891Z,6.07
2019-04-21T11:30:34.044Z,6.37
2019-04-21T11:33:15.257Z,5.70
2019-04-21T11:35:53.188Z,5.80
2019-04-21T11:38:30.014Z,6.83
2019-04-21T11:41:00.040Z,5.70
2019-04-21T11:43:37.026Z,5.10
2019-04-21T11:48:57.917Z,4.70
2019-04-21T11:51:28.961Z,5.60
2019-04-21T11:53:59.210Z,5.13
2019-04-21T11:56:28.298Z,5.70
2019-04-21T11:59:08.013Z,5.30
2019-04-21T12:04:33.701Z,5.00
2019-04-21T12:07:05.101Z,5.30
2019-04-21T12:09:35.513Z,5.23
2019-04-21T12:12:07.367Z,4.90
2019-04-21T12:14:54.232Z,5.13
2019-04-21T12:20:26.589Z,6.47
2019-04-21T12:23:00.384Z,6.10
2019-04-21T12:25:42.976Z,6.07
2019-04-21T12:28:35.582Z,5.53
2019-04-21T12:31:23.414Z,5.00
2019-04-21T12:34:03.869Z,6.20
2019-04-21T12:36:38.028Z,5.90
2019-04-21T12:39:25.092Z,5.87
2019-04-21T12:42:10.623Z,6.17
2019-04-21T12:44:43.321Z,5.80
2019-04-21T12:47:12.054Z,5.70
2019-04-21T12:49:59.097Z,6.07
2019-04-21T12:52:29.498Z,6.03
2019-04-21T12:54:59.624Z,5.20
2019-04-21T12:57:31.446Z,5.43
2019-04-21T13:00:05.040Z,5.10
2019-04-21T13:02:49.801Z,5.57
2019-04-21T13:05:20.072Z,5.70
2019-04-21T13:07:53.358Z,4.83
2019-04-21T13:10:30.541Z,5.53
2019-04-21T13:13:10.064Z,6.00
2019-04-21T13:15:40.434Z,5.23
2019-04-21T13:18:14.330Z,5.60
2019-04-21T13:20:44.366Z,6.00
2019-04-21T13:23:13.856Z,5.80
2019-04-21T13:25:45.784Z,5.70
2019-04-21T13:28:18.652Z,6.60
2019-04-21T13:30:58.117Z,6.40
2019-04-21T13:33:27.158Z,6.20
2019-04-21T13:36:02.945Z,5.07
2019-04-21T13:38:49.204Z,5.97
2019-04-21T13:41:32.549Z,6.13
2019-04-21T13:43:55.048Z,5.63
2019-04-21T13:46:27.100Z,5.47
2019-04-21T13:49:01.183Z,6.00
2019-04-21T13:51:45.909Z,5.90
2019-04-21T13:54:18.057Z,4.67
2019-04-21T13:56:54.383Z,5.63
2019-04-21T13:59:26.317Z,5.20
2019-04-21T14:02:02.695Z,5.30
2019-04-21T14:04:35.673Z,5.17
2019-04-21T14:07:06.103Z,4.93
2019-04-21T14:09:46.790Z,5.57
2019-04-21T14:12:11.726Z,5.40
2019-04-21T14:14:40.397Z,6.20
2019-04-21T14:17:09.093Z,4.77
2019-04-21T14:19:37.866Z,6.03
2019-04-21T14:22:10.264Z,5.97
2019-04-21T14:24:38.703Z,4.90
2019-04-21T14:27:08.041Z,5.40
2019-04-21T14:29:37.702Z,5.17
2019-04-21T14:32:06.516Z,4.97
2019-04-21T14:34:35.584Z,4.80
2019-04-21T14:37:04.495Z,5.13
2019-04-21T14:39:34.361Z,4.93
2019-04-21T14:42:04.264Z,5.70
2019-04-21T14:44:33.307Z,5.10
2019-04-21T14:47:04.907Z,4.70
2019-04-21T14:49:35.289Z,4.50
2019-04-21T14:52:11.090Z,5.10
2019-04-21T14:54:44.645Z,5.03
2019-04-21T14:57:13.582Z,4.10
2019-04-21T14:59:42.827Z,4.53
2019-04-21T15:02:11.737Z,4.67
2019-04-21T15:04:41.638Z,4.23
2019-04-21T15:07:10.206Z,4.77
2019-04-21T15:09:39.643Z,5.40
2019-04-21T15:12:10.031Z,5.37
2019-04-21T15:14:40.159Z,5.30
2019-04-21T15:17:09.116Z,5.80
2019-04-21T15:19:38.369Z,5.57
2019-04-21T15:22:20.729Z,5.20
2019-04-21T15:24:50.138Z,4.60
2019-04-21T15:27:20.947Z,4.90
2019-04-21T15:29:50.958Z,4.60
2019-04-21T15:32:19.584Z,5.83
2019-04-21T15:34:47.985Z,4.13
2019-04-21T15:37:17.886Z,3.87
2019-04-21T15:42:36.693Z,4.90
2019-04-21T15:45:06.484Z,4.30
2019-04-21T15:47:36.023Z,4.00
2019-04-21T15:50:11.975Z,5.10
2019-04-21T15:52:37.973Z,4.87
2019-04-21T15:55:15.224Z,4.10
2019-04-21T15:57:46.924Z,4.60
2019-04-21T16:00:30.976Z,4.97
2019-04-21T16:03:00.411Z,4.90
2019-04-21T16:05:30.743Z,4.43
2019-04-21T16:08:00.326Z,4.50
2019-04-21T16:10:39.525Z,4.70
2019-04-21T16:12:58.991Z,5.10
2019-04-21T16:15:28.273Z,4.70
2019-04-21T16:17:57.226Z,4.40
2019-04-21T16:20:25.966Z,4.37
2019-04-21T16:22:54.803Z,4.60
2019-04-21T16:25:23.456Z,5.70
2019-04-21T16:27:53.157Z,4.10
2019-04-21T16:30:21.896Z,4.30
2019-04-21T16:32:50.546Z,5.37
2019-04-21T16:35:20.418Z,5.17
2019-04-21T16:37:49.797Z,5.10
2019-04-21T16:40:19.279Z,5.40
2019-04-21T16:42:48.106Z,5.07
2019-04-21T16:45:17.054Z,5.00
2019-04-21T16:47:48.402Z,5.20
2019-04-21T16:50:16.251Z,5.07
2019-04-21T16:52:46.365Z,5.93
2019-04-21T16:55:33.247Z,5.23
2019-04-21T16:58:15.268Z,5.90
2019-04-21T17:00:47.574Z,5.37
2019-04-21T17:03:12.468Z,5.23
2019-04-21T17:05:42.482Z,4.57
2019-04-21T17:08:11.315Z,4.90
2019-04-21T17:10:59.183Z,5.73
2019-04-21T17:13:15.773Z,5.53
2019-04-21T17:16:01.439Z,4.63
2019-04-21T17:18:31.626Z,4.60
2019-04-21T17:20:51.574Z,5.10
2019-04-21T17:23:15.662Z,5.17
2019-04-21T17:25:45.334Z,5.43
2019-04-21T17:28:15.389Z,5.23
2019-04-21T17:30:44.354Z,4.53
2019-04-21T17:33:16.241Z,4.60
2019-04-21T17:35:43.222Z,4.83
2019-04-21T17:38:24.015Z,5.20
2019-04-21T17:40:53.742Z,4.20
2019-04-21T17:43:23.764Z,4.63
2019-04-21T17:45:57.459Z,4.33
2019-04-21T17:48:29.330Z,4.30
2019-04-21T17:51:11.785Z,3.47
2019-04-21T17:53:51.623Z,3.63
2019-04-21T17:56:46.429Z,3.40
2019-04-21T17:59:07.341Z,3.70
2019-04-21T18:01:40.490Z,4.07
2019-04-21T18:04:15.169Z,3.87
2019-04-21T18:06:50.159Z,4.00
2019-04-21T18:09:46.896Z,4.33
2019-04-21T18:12:07.767Z,4.23
2019-04-21T18:14:22.275Z,3.70
2019-04-21T18:16:53.501Z,3.57
2019-04-21T18:19:36.137Z,3.60
2019-04-21T18:22:12.809Z,3.57
2019-04-21T18:24:55.780Z,3.60
2019-04-21T18:27:19.830Z,3.60
2019-04-21T18:29:54.692Z,4.30
2019-04-21T18:32:30.789Z,3.90
2019-04-21T18:35:15.963Z,4.30
2019-04-21T18:38:08.147Z,4.20
2019-04-21T18:40:31.966Z,3.90
2019-04-21T18:43:38.335Z,4.10
2019-04-21T18:46:03.654Z,4.80
2019-04-21T18:48:24.571Z,3.73
2019-04-21T18:50:50.978Z,3.87
2019-04-21T18:53:44.214Z,3.87
2019-04-21T18:56:04.929Z,3.80
2019-04-21T18:58:28.797Z,3.90
2019-04-21T19:01:07.531Z,5.07
2019-04-21T19:03:35.387Z,4.00
2019-04-21T19:06:06.431Z,4.20
2019-04-21T19:08:46.958Z,4.50
2019-04-21T19:11:20.928Z,4.03
2019-04-21T19:14:20.997Z,4.40
2019-04-21T19:16:59.329Z,3.47
2019-04-21T19:19:31.690Z,4.17
2019-04-21T19:21:27.997Z,4.37
2019-04-21T19:26:49.713Z,4.10
2019-04-21T19:29:16.647Z,4.30
2019-04-21T19:31:38.495Z,3.80
2019-04-21T19:33:58.206Z,3.77
2019-04-21T19:36:21.541Z,4.40
2019-04-21T19:38:59.645Z,3.57
2019-04-21T19:41:32.769Z,4.00
2019-04-21T19:44:06.509Z,4.50
2019-04-21T19:46:34.312Z,4.27
2019-04-21T19:49:16.705Z,4.10
2019-04-21T19:51:35.530Z,3.77
2019-04-21T19:54:01.687Z,3.90
2019-04-21T19:56:21.957Z,4.40
2019-04-21T19:58:50.869Z,3.57
2019-04-21T20:01:19.385Z,4.07
2019-04-21T20:03:52.073Z,5.67
2019-04-21T20:06:35.343Z,4.40
2019-04-21T20:09:09.657Z,4.67
2019-04-21T20:11:37.142Z,3.83
2019-04-21T20:14:37.936Z,4.80
2019-04-21T20:16:41.706Z,4.13
2019-04-21T20:18:57.282Z,4.37
2019-04-21T20:21:26.811Z,4.17
2019-04-21T20:24:05.707Z,4.28
2019-04-21T20:26:37.934Z,3.97
2019-04-21T20:29:20.822Z,4.60
2019-04-21T20:31:46.568Z,4.87
2019-04-21T20:34:26.871Z,5.55
2019-04-21T20:37:00.295Z,4.30
2019-04-21T20:39:13.078Z,5.42
2019-04-21T20:41:48.281Z,5.57
2019-04-21T20:44:24.810Z,4.72
2019-04-21T20:46:54.495Z,5.00
2019-04-21T20:49:19.142Z,6.35
2019-04-21T20:52:01.534Z,4.65
2019-04-21T20:54:24.544Z,5.75
2019-04-21T20:56:58.346Z,5.50
2019-04-21T20:59:19.523Z,6.30
2019-04-21T21:01:54.938Z,5.10
2019-04-21T21:04:21.521Z,5.37
2019-04-21T21:06:59.695Z,5.40
2019-04-21T21:09:27.349Z,5.35
2019-04-21T21:12:15.047Z,5.90
2019-04-21T21:14:36.303Z,6.25
2019-04-21T21:17:18.289Z,4.78
2019-04-21T21:19:43.952Z,5.30
2019-04-21T21:22:00.167Z,4.95
2019-04-21T21:24:44.689Z,5.00
2019-04-21T21:27:05.597Z,5.70
2019-04-21T21:29:43.021Z,4.37
2019-04-21T21:32:18.499Z,5.22
2019-04-21T21:34:47.475Z,6.10
2019-04-21T21:37:21.237Z,5.37
2019-04-21T21:39:55.234Z,5.00
2019-04-21T21:42:02.690Z,5.33
2019-04-21T21:44:32.518Z,5.80
2019-04-21T21:47:18.551Z,4.90
2019-04-21T21:49:43.990Z,5.53
2019-04-21T21:52:09.245Z,5.58
2019-04-21T21:54:31.867Z,5.85
2019-04-21T21:57:00.805Z,5.47
2019-04-21T21:59:31.816Z,5.15
2019-04-21T22:02:00.274Z,5.80
2019-04-21T22:04:32.442Z,5.60
2019-04-21T22:07:04.590Z,6.35
2019-04-21T22:09:30.442Z,5.03
2019-04-21T22:12:04.383Z,5.37
2019-04-21T22:14:37.178Z,5.62
2019-04-21T22:17:16.492Z,6.05
2019-04-21T22:19:51.001Z,5.72
2019-04-21T22:22:21.570Z,5.62
2019-04-21T22:24:46.687Z,5.40
2019-04-21T22:27:03.435Z,5.47
2019-04-21T22:29:38.171Z,5.40
2019-04-21T22:32:12.650Z,5.33
2019-04-21T22:34:46.963Z,5.08
2019-04-21T22:37:28.839Z,5.95
2019-04-21T22:39:54.309Z,5.50
2019-04-21T22:42:20.041Z,5.03
2019-04-21T22:44:48.182Z,5.47
2019-04-21T22:47:23.788Z,4.90
2019-04-21T22:49:48.487Z,6.10
2019-04-21T22:52:21.066Z,5.60
2019-04-21T22:54:49.289Z,5.85
2019-04-21T22:57:21.416Z,5.53
2019-04-21T22:59:53.895Z,5.12
2019-04-21T23:02:23.720Z,5.12
2019-04-21T23:04:53.073Z,5.55
2019-04-21T23:07:22.468Z,5.35
2019-04-21T23:09:51.436Z,5.30
2019-04-21T23:12:27.706Z,6.55
2019-04-21T23:14:58.507Z,5.90
2019-04-21T23:17:40.584Z,5.30
2019-04-21T23:20:19.579Z,6.17
2019-04-21T23:22:51.403Z,5.05
2019-04-21T23:25:13.656Z,5.83
2019-04-21T23:27:44.051Z,5.92
2019-04-21T23:30:19.966Z,4.83
2019-04-21T23:32:35.972Z,5.83
2019-04-21T23:35:13.287Z,5.42
2019-04-21T23:37:43.560Z,5.42
2019-04-21T23:40:14.768Z,6.85
2019-04-21T23:42:44.069Z,5.85
2019-04-21T23:45:12.299Z,6.05
2019-04-21T23:47:53.736Z,6.55
2019-04-21T23:50:35.190Z,5.65
2019-04-21T23:52:57.300Z,5.53
2019-04-21T23:55:29.315Z,6.62
2019-04-21T23:58:07.107Z,5.35
